createdAt,value
2019-04-03T00:01:13.347Z,9.9
2019-04-03T00:11:12.553Z,9.8
2019-04-03T00:21:11.766Z,9.8
2019-04-03T00:31:10.976Z,9.6
2019-04-03T00:41:10.289Z,9.6
2019-04-03T00:51:09.410Z,9.4
2019-04-03T01:01:08.603Z,9.3
2019-04-03T01:11:07.924Z,9.2
2019-04-03T01:21:07.149Z,9.1
2019-04-03T01:31:06.230Z,8.9
2019-04-03T01:41:05.451Z,8.8
2019-04-03T01:51:04.660Z,8.8
2019-04-03T02:01:03.872Z,8.8
2019-04-03T02:11:03.074Z,8.8
2019-04-03T02:21:02.289Z,8.8
2019-04-03T02:31:01.508Z,8.7
2019-04-03T02:41:03.350Z,8.6
2019-04-03T02:50:59.908Z,8.6
2019-04-03T03:00:59.126Z,8.7
2019-04-03T03:10:58.331Z,8.6
2019-04-03T03:20:57.547Z,8.6
2019-04-03T03:31:01.912Z,8.6
2019-04-03T03:40:55.961Z,8.4
2019-04-03T03:50:57.105Z,8.3
2019-04-03T04:00:57.736Z,7.7
2019-04-03T04:10:57.731Z,6.3
2019-04-03T04:20:52.804Z,5.9
2019-04-03T04:30:52.012Z,5.9
2019-04-03T04:40:51.286Z,6
2019-04-03T04:50:50.426Z,6.2
2019-04-03T05:00:52.814Z,6.6
2019-04-03T05:10:49.400Z,7
2019-04-03T05:20:48.798Z,7.4
2019-04-03T05:30:47.438Z,7.8
2019-04-03T05:40:46.622Z,8.3
2019-04-03T05:50:45.680Z,8.4
2019-04-03T06:00:44.896Z,9.1
2019-04-03T06:10:44.102Z,9.6
2019-04-03T06:20:43.955Z,10.6
2019-04-03T06:30:42.674Z,10.8
2019-04-03T06:40:41.755Z,11.5
2019-04-03T06:50:40.932Z,12.1
2019-04-03T07:00:40.153Z,12.8
2019-04-03T07:10:40.323Z,13.4
2019-04-03T07:20:38.571Z,14.1
2019-04-03T07:30:37.783Z,14.9
2019-04-03T07:40:36.988Z,15.8
2019-04-03T07:50:37.109Z,16.7
2019-04-03T08:00:36.213Z,17.6
2019-04-03T08:10:37.200Z,18.8
2019-04-03T08:20:33.971Z,20.1
2019-04-03T08:30:33.326Z,19.5
2019-04-03T08:40:32.249Z,18.6
2019-04-03T08:50:31.447Z,18.3
2019-04-03T09:00:32.043Z,18.2
2019-04-03T09:10:31.436Z,18.6
2019-04-03T09:20:29.061Z,19.1
2019-04-03T09:30:28.272Z,19.2
2019-04-03T09:40:27.493Z,18.5
2019-04-03T09:50:26.951Z,18.4
2019-04-03T10:00:26.082Z,19.7
2019-04-03T10:10:25.779Z,20.1
2019-04-03T10:20:24.372Z,18.9
2019-04-03T10:30:23.837Z,18.2
2019-04-03T10:40:24.079Z,18.9
2019-04-03T10:50:21.956Z,18.3
2019-04-03T11:00:22.011Z,18
2019-04-03T11:10:23.287Z,17.6
2019-04-03T11:20:19.586Z,17.8
2019-04-03T11:30:23.423Z,16.9
2019-04-03T11:40:18.732Z,16.8
2019-04-03T11:50:17.228Z,16.6
2019-04-03T12:00:16.522Z,16.6
2019-04-03T12:10:15.732Z,16.3
2019-04-03T12:20:15.780Z,16.8
2019-04-03T12:30:14.098Z,16.3
2019-04-03T12:40:13.635Z,16.1
2019-04-03T12:50:13.422Z,16.1
2019-04-03T13:00:12.892Z,16
2019-04-03T13:10:11.042Z,15.9
2019-04-03T13:20:10.222Z,16.1
2019-04-03T13:30:11.885Z,16
2019-04-03T13:40:08.821Z,16
2019-04-03T13:50:07.739Z,16.1
2019-04-03T14:00:18.055Z,15.9
2019-04-03T14:10:06.487Z,15.8
2019-04-03T14:20:05.356Z,15.6
2019-04-03T14:30:04.574Z,15.3
2019-04-03T14:40:03.779Z,15.1
2019-04-03T14:50:05.199Z,14.9
2019-04-03T15:00:03.042Z,14.7
2019-04-03T15:10:01.408Z,14.6
2019-04-03T15:20:00.611Z,14.4
2019-04-03T15:30:00.017Z,14.1
2019-04-03T15:39:59.795Z,14.1
2019-04-03T15:49:08.424Z,13.8
2019-04-03T15:59:07.383Z,13.6
2019-04-03T16:09:06.835Z,13.4
2019-04-03T16:19:05.653Z,13.2
2019-04-03T16:29:06.810Z,12.9
2019-04-03T16:39:04.073Z,12.6
2019-04-03T16:49:06.048Z,12.4
2019-04-03T16:59:03.045Z,12.7
2019-04-03T17:09:02.392Z,12.9
2019-04-03T17:19:01.211Z,12.9
2019-04-03T17:29:04.938Z,12.9
2019-04-03T17:39:01.575Z,12.8
2019-04-03T17:48:59.005Z,12.7
2019-04-03T17:58:58.219Z,12.6
2019-04-03T18:08:57.448Z,12.6
2019-04-03T18:18:56.670Z,12.6
2019-04-03T18:28:55.884Z,12.5
2019-04-03T18:38:55.091Z,12.4
2019-04-03T18:50:18.918Z,12.3
2019-04-03T19:00:18.011Z,12.1
2019-04-03T19:10:18.346Z,12.1
2019-04-03T19:20:16.434Z,11.9
2019-04-03T19:30:15.653Z,11.7
2019-04-03T19:40:14.856Z,11.5
2019-04-03T19:50:14.127Z,11.4
2019-04-03T20:00:13.419Z,11.3
2019-04-03T20:10:12.715Z,11.3
2019-04-03T20:20:11.993Z,11.2
2019-04-03T20:30:11.277Z,11.1
2019-04-03T20:40:10.566Z,11
2019-04-03T20:50:09.782Z,10.9
2019-04-03T21:00:08.987Z,10.9
2019-04-03T21:13:15.460Z,10.9
2019-04-03T21:23:13.826Z,10.9
2019-04-03T21:33:13.042Z,10.8
2019-04-03T21:43:12.244Z,10.7
2019-04-03T21:53:11.460Z,10.6
2019-04-03T22:03:10.661Z,10.5
2019-04-03T22:13:09.916Z,10.4
2019-04-03T22:23:09.204Z,10.4
2019-04-03T22:33:08.487Z,10.4
2019-04-03T22:43:07.775Z,10.4
2019-04-03T22:53:07.070Z,10.4
2019-04-03T23:03:06.347Z,10.4
2019-04-03T23:13:05.563Z,10.4
2019-04-03T23:23:04.767Z,10.2
2019-04-03T23:36:44.448Z,10.1
2019-04-03T23:46:45.338Z,10
2019-04-03T23:56:42.871Z,9.9
